SXABL EDDW-EHLE

Flight info

Callsign SXABL
Flight time 0h 55m
Altitude 12000
Route OKWE1L OKWEL N125 EKNON
Aircraft AEST/L-VGD/C

Departure

Time 2026-04-23 19:14
Airport Bremen Airport (EDDW)

Arrival

Time 2026-04-23 20:09
Airport Lelystad Airport (EHLE)
Time Latitude Longitude Altitude Speed Heading
2026-04-23 18:49 53.05260 8.77990 16 ft 0 kts 317°
2026-04-23 19:04 53.05260 8.77989 16 ft 0 kts 317°
2026-04-23 19:07 53.05270 8.77987 16 ft 6 kts 33°
2026-04-23 19:07 53.05264 8.78006 15 ft 4 kts 169°
2026-04-23 19:07 53.05230 8.78062 15 ft 8 kts 126°
2026-04-23 19:08 53.05168 8.78159 15 ft 17 kts 140°
2026-04-23 19:08 53.05070 8.78299 14 ft 21 kts 139°
2026-04-23 19:08 53.04954 8.78467 13 ft 23 kts 138°
2026-04-23 19:08 53.04859 8.78608 12 ft 12 kts 134°
2026-04-23 19:09 53.04852 8.78703 13 ft 8 kts 87°
2026-04-23 19:09 53.04854 8.78822 12 ft 13 kts 89°
2026-04-23 19:09 53.04857 8.78991 12 ft 16 kts 88°
2026-04-23 19:09 53.04862 8.79170 15 ft 15 kts 87°
2026-04-23 19:10 53.04865 8.79340 17 ft 15 kts 89°
2026-04-23 19:10 53.04870 8.79523 17 ft 16 kts 87°
2026-04-23 19:10 53.04874 8.79701 20 ft 14 kts 88°
2026-04-23 19:10 53.04878 8.79876 17 ft 17 kts 87°
2026-04-23 19:11 53.04881 8.80062 15 ft 14 kts 86°
2026-04-23 19:11 53.04886 8.80221 15 ft 14 kts 89°
2026-04-23 19:11 53.04886 8.80363 12 ft 11 kts 96°
2026-04-23 19:11 53.04829 8.80462 12 ft 6 kts 169°
2026-04-23 19:12 53.04828 8.80463 12 ft 0 kts 172°
2026-04-23 19:12 53.04795 8.80467 13 ft 9 kts 183°
2026-04-23 19:12 53.04740 8.80424 16 ft 11 kts 230°
2026-04-23 19:13 53.04723 8.80335 14 ft 0 kts 264°
2026-04-23 19:13 53.04716 8.80063 16 ft 64 kts 269°
2026-04-23 19:13 53.04685 8.79103 111 ft 92 kts 270°
2026-04-23 19:13 53.04661 8.77978 445 ft 98 kts 275°
2026-04-23 19:14 53.04662 8.76879 1002 ft 93 kts 276°
2026-04-23 19:14 53.04642 8.75726 1255 ft 106 kts 275°
2026-04-23 19:14 53.04595 8.74400 1448 ft 123 kts 276°
2026-04-23 19:14 53.04617 8.72940 1709 ft 128 kts 281°
2026-04-23 19:15 53.04605 8.71441 2028 ft 132 kts 277°
2026-04-23 19:15 53.04559 8.69898 2330 ft 135 kts 279°
2026-04-23 19:15 53.04672 8.68373 2690 ft 133 kts 306°
2026-04-23 19:15 53.05348 8.67490 3004 ft 127 kts 348°
2026-04-23 19:16 53.06197 8.67396 3396 ft 117 kts 357°
2026-04-23 19:16 53.07007 8.67347 3688 ft 119 kts 354°
2026-04-23 19:16 53.07852 8.67244 3914 ft 123 kts 353°
2026-04-23 19:17 53.09538 8.67066 4532 ft 124 kts 357°
2026-04-23 19:17 53.10404 8.67047 4812 ft 124 kts 357°
2026-04-23 19:17 53.11258 8.67046 5113 ft 123 kts 358°
2026-04-23 19:17 53.12125 8.67054 5356 ft 127 kts 359°
2026-04-23 19:18 53.13004 8.67113 5679 ft 126 kts
2026-04-23 19:18 53.13868 8.67059 5965 ft 127 kts 342°
2026-04-23 19:18 53.14623 8.66240 6178 ft 135 kts 321°
2026-04-23 19:18 53.15311 8.65225 6553 ft 128 kts 324°
2026-04-23 19:19 53.16726 8.63316 7014 ft 135 kts 326°
2026-04-23 19:19 53.17320 8.62102 7199 ft 143 kts 294°
2026-04-23 19:20 53.17028 8.58592 7739 ft 152 kts 272°
2026-04-23 19:20 53.16837 8.56866 8047 ft 153 kts 268°
2026-04-23 19:20 53.16649 8.55104 8285 ft 156 kts 268°
2026-04-23 19:20 53.16432 8.53326 8557 ft 157 kts 267°
2026-04-23 19:21 53.16223 8.51545 8829 ft 157 kts 268°
2026-04-23 19:21 53.15840 8.47958 9338 ft 158 kts 269°
2026-04-23 19:21 53.15654 8.46159 9589 ft 157 kts 269°
2026-04-23 19:22 53.15467 8.44363 9822 ft 157 kts 269°
2026-04-23 19:22 53.15279 8.42580 10065 ft 155 kts 269°
2026-04-23 19:22 53.14906 8.39052 10499 ft 154 kts 269°
2026-04-23 19:23 53.14720 8.37297 10702 ft 153 kts 269°
2026-04-23 19:23 53.14534 8.35554 10898 ft 153 kts 269°
2026-04-23 19:23 53.14351 8.33835 11089 ft 152 kts 269°
2026-04-23 19:24 53.13983 8.30380 11463 ft 151 kts 269°
2026-04-23 19:24 53.13798 8.28653 11648 ft 151 kts 269°
2026-04-23 19:24 53.13431 8.25217 12007 ft 150 kts 269°
2026-04-23 19:25 53.13062 8.21796 12346 ft 150 kts 268°
2026-04-23 19:25 53.12675 8.18140 12332 ft 172 kts 267°
2026-04-23 19:26 53.12232 8.14038 12316 ft 186 kts 266°
2026-04-23 19:26 53.11998 8.11901 12318 ft 190 kts 266°
2026-04-23 19:27 53.11519 8.07499 12317 ft 196 kts 266°
2026-04-23 19:27 53.10781 8.00744 12314 ft 200 kts 266°
2026-04-23 19:28 53.10280 7.96170 12314 ft 201 kts 266°
2026-04-23 19:28 53.09773 7.91563 12311 ft 203 kts 266°
2026-04-23 19:29 53.09519 7.89252 12315 ft 203 kts 266°
2026-04-23 19:29 53.09003 7.84609 12320 ft 205 kts 265°
2026-04-23 19:30 53.08489 7.79996 12318 ft 204 kts 265°
2026-04-23 19:30 53.08228 7.77650 12320 ft 204 kts 266°
2026-04-23 19:30 53.07713 7.73029 12322 ft 204 kts 265°
2026-04-23 19:31 53.07452 7.70707 12322 ft 204 kts 265°
2026-04-23 19:31 53.07193 7.68387 12322 ft 204 kts 265°
2026-04-23 19:31 53.06931 7.66062 12321 ft 204 kts 265°
2026-04-23 19:31 53.06670 7.63738 12309 ft 204 kts 265°
2026-04-23 19:32 53.06411 7.61425 12321 ft 203 kts 265°
2026-04-23 19:32 53.06150 7.59112 12323 ft 204 kts 265°
2026-04-23 19:32 53.05884 7.56793 12322 ft 204 kts 265°
2026-04-23 19:32 53.05620 7.54473 12322 ft 205 kts 265°
2026-04-23 19:33 53.05357 7.52143 12328 ft 205 kts 265°
2026-04-23 19:33 53.05091 7.49817 12328 ft 205 kts 265°
2026-04-23 19:33 53.04557 7.45142 12327 ft 206 kts 265°
2026-04-23 19:34 53.04290 7.42810 12314 ft 206 kts 265°
2026-04-23 19:34 53.04020 7.40470 12323 ft 205 kts 265°
2026-04-23 19:34 53.03486 7.35823 12324 ft 204 kts 265°
2026-04-23 19:35 53.03219 7.33504 12325 ft 205 kts 265°
2026-04-23 19:35 53.02953 7.31182 12335 ft 204 kts 265°
2026-04-23 19:35 53.02683 7.28860 12327 ft 205 kts 265°
2026-04-23 19:35 53.02414 7.26561 12331 ft 206 kts 265°
2026-04-23 19:36 53.02144 7.24230 12328 ft 205 kts 265°
2026-04-23 19:36 53.01875 7.21902 12330 ft 205 kts 264°
2026-04-23 19:36 53.01480 7.19621 12339 ft 206 kts 257°
2026-04-23 19:36 53.01020 7.17352 12326 ft 208 kts 257°
2026-04-23 19:37 53.00556 7.15081 12331 ft 208 kts 257°
2026-04-23 19:37 53.00092 7.12806 12332 ft 208 kts 257°
2026-04-23 19:37 52.99630 7.10526 12331 ft 208 kts 257°
2026-04-23 19:37 52.99168 7.08251 12338 ft 208 kts 256°
2026-04-23 19:38 52.98704 7.05979 12340 ft 208 kts 257°
2026-04-23 19:38 52.98242 7.03707 12343 ft 208 kts 257°
2026-04-23 19:38 52.97775 7.01434 12342 ft 208 kts 257°
2026-04-23 19:38 52.97312 6.99162 12342 ft 208 kts 257°
2026-04-23 19:39 52.96846 6.96888 12341 ft 208 kts 257°
2026-04-23 19:39 52.96380 6.94617 12346 ft 208 kts 256°
2026-04-23 19:39 52.95912 6.92344 12345 ft 208 kts 256°
2026-04-23 19:39 52.95447 6.90073 12345 ft 208 kts 256°
2026-04-23 19:40 52.94982 6.87801 12343 ft 208 kts 256°
2026-04-23 19:40 52.94671 6.86297 12349 ft 208 kts 256°
2026-04-23 19:40 52.94201 6.84023 12346 ft 208 kts 256°
2026-04-23 19:40 52.93578 6.81014 12345 ft 209 kts 256°
2026-04-23 19:41 52.93109 6.78737 12347 ft 208 kts 256°
2026-04-23 19:41 52.92639 6.76468 12349 ft 208 kts 256°
2026-04-23 19:41 52.92323 6.74936 12350 ft 208 kts 256°
2026-04-23 19:41 52.91703 6.71935 12350 ft 208 kts 256°
2026-04-23 19:42 52.91386 6.70404 12351 ft 208 kts 256°
2026-04-23 19:42 52.90915 6.68134 12353 ft 208 kts 256°
2026-04-23 19:42 52.90443 6.65870 12351 ft 208 kts 256°
2026-04-23 19:42 52.89978 6.63634 12354 ft 208 kts 256°
2026-04-23 19:43 52.89507 6.61371 12354 ft 208 kts 256°
2026-04-23 19:43 52.89027 6.59073 12354 ft 208 kts 256°
2026-04-23 19:43 52.88555 6.56809 12344 ft 208 kts 256°
2026-04-23 19:43 52.88091 6.54580 12352 ft 208 kts 256°
2026-04-23 19:44 52.87615 6.52322 12354 ft 208 kts 256°
2026-04-23 19:44 52.87141 6.50062 12352 ft 208 kts 256°
2026-04-23 19:44 52.86668 6.47802 12350 ft 208 kts 256°
2026-04-23 19:44 52.86193 6.45543 12354 ft 208 kts 256°
2026-04-23 19:45 52.85720 6.43287 12354 ft 208 kts 256°
2026-04-23 19:45 52.85245 6.41027 12363 ft 208 kts 256°
2026-04-23 19:45 52.84771 6.38775 12345 ft 206 kts 256°
2026-04-23 19:45 52.84304 6.36575 12297 ft 199 kts 256°
2026-04-23 19:46 52.83852 6.34447 12228 ft 193 kts 256°
2026-04-23 19:46 52.83414 6.32364 12150 ft 190 kts 256°
2026-04-23 19:46 52.82981 6.30310 12031 ft 189 kts 256°
2026-04-23 19:46 52.82548 6.28257 11881 ft 189 kts 256°
2026-04-23 19:47 52.82112 6.26200 11724 ft 190 kts 256°
2026-04-23 19:47 52.81675 6.24135 11580 ft 190 kts 256°
2026-04-23 19:47 52.81243 6.22097 11440 ft 190 kts 256°
2026-04-23 19:47 52.80800 6.20006 11300 ft 190 kts 256°
2026-04-23 19:48 52.80367 6.17964 11157 ft 191 kts 256°
2026-04-23 19:48 52.79927 6.15897 11017 ft 191 kts 256°
2026-04-23 19:48 52.79485 6.13825 10885 ft 190 kts 256°
2026-04-23 19:48 52.79014 6.11615 10746 ft 190 kts 256°
2026-04-23 19:49 52.78607 6.09700 10626 ft 190 kts 256°
2026-04-23 19:49 52.78136 6.07668 10457 ft 191 kts 246°
2026-04-23 19:49 52.77390 6.05819 10311 ft 195 kts 239°
2026-04-23 19:49 52.76553 6.04060 10168 ft 195 kts 234°
2026-04-23 19:50 52.75658 6.02375 10034 ft 195 kts 233°
2026-04-23 19:50 52.74614 6.00929 9853 ft 198 kts 218°
2026-04-23 19:50 52.73465 5.99661 9739 ft 199 kts 217°
2026-04-23 19:50 52.72355 5.98318 9635 ft 197 kts 223°
2026-04-23 19:51 52.71306 5.96870 9521 ft 196 kts 224°
2026-04-23 19:51 52.70261 5.95422 9406 ft 196 kts 224°
2026-04-23 19:51 52.69219 5.93976 9292 ft 196 kts 224°
2026-04-23 19:51 52.68172 5.92527 9155 ft 198 kts 224°
2026-04-23 19:52 52.67113 5.91058 8991 ft 200 kts 224°
2026-04-23 19:52 52.66044 5.89573 8842 ft 201 kts 224°
2026-04-23 19:52 52.64970 5.88081 8686 ft 202 kts 224°
2026-04-23 19:52 52.63895 5.86587 8543 ft 202 kts 224°
2026-04-23 19:53 52.62818 5.85089 8403 ft 203 kts 224°
2026-04-23 19:53 52.61745 5.83596 8187 ft 204 kts 224°
2026-04-23 19:53 52.60668 5.82074 7970 ft 200 kts 224°
2026-04-23 19:53 52.59621 5.80595 7751 ft 197 kts 224°
2026-04-23 19:54 52.58483 5.79407 7561 ft 195 kts 213°
2026-04-23 19:54 52.57320 5.78264 7406 ft 191 kts 214°
2026-04-23 19:54 52.56189 5.77139 7226 ft 190 kts 214°
2026-04-23 19:54 52.55059 5.76017 7032 ft 190 kts 214°
2026-04-23 19:55 52.53927 5.74901 6853 ft 190 kts 214°
2026-04-23 19:55 52.52820 5.73786 6678 ft 189 kts 216°
2026-04-23 19:55 52.51705 5.72653 6483 ft 188 kts 214°
2026-04-23 19:55 52.50585 5.71539 6305 ft 188 kts 214°
2026-04-23 19:56 52.49469 5.70428 6134 ft 187 kts 214°
2026-04-23 19:56 52.48355 5.69319 5967 ft 188 kts 214°
2026-04-23 19:56 52.47239 5.68206 5799 ft 187 kts 214°
2026-04-23 19:56 52.46128 5.67096 5628 ft 187 kts 214°
2026-04-23 19:57 52.45023 5.65995 5463 ft 186 kts 214°
2026-04-23 19:57 52.43914 5.64894 5314 ft 187 kts 214°
2026-04-23 19:57 52.42803 5.63787 5155 ft 186 kts 214°
2026-04-23 19:57 52.41695 5.62684 4999 ft 186 kts 214°
2026-04-23 19:58 52.40629 5.61477 4849 ft 186 kts 227°
2026-04-23 19:58 52.39741 5.59956 4722 ft 184 kts 231°
2026-04-23 19:58 52.38874 5.58432 4592 ft 182 kts 231°
2026-04-23 19:58 52.38015 5.56906 4461 ft 182 kts 231°
2026-04-23 19:59 52.37159 5.55384 4327 ft 182 kts 231°
2026-04-23 19:59 52.36300 5.53863 4200 ft 182 kts 231°
2026-04-23 19:59 52.35442 5.52342 4072 ft 182 kts 231°
2026-04-23 19:59 52.34586 5.50821 3945 ft 182 kts 230°
2026-04-23 20:00 52.33724 5.49298 3823 ft 182 kts 231°
2026-04-23 20:00 52.32866 5.47780 3695 ft 182 kts 231°
2026-04-23 20:00 52.32004 5.46260 3574 ft 182 kts 231°
2026-04-23 20:00 52.31148 5.44741 3451 ft 182 kts 231°
2026-04-23 20:01 52.30296 5.43208 3319 ft 182 kts 231°
2026-04-23 20:01 52.29450 5.41681 3200 ft 182 kts 231°
2026-04-23 20:01 52.28858 5.39892 3090 ft 180 kts 265°
2026-04-23 20:01 52.29023 5.37960 3029 ft 168 kts 303°
2026-04-23 20:02 52.29714 5.36507 2921 ft 160 kts 315°
2026-04-23 20:02 52.30159 5.34817 2718 ft 167 kts 294°
2026-04-23 20:02 52.30801 5.33305 2631 ft 159 kts 322°
2026-04-23 20:02 52.31644 5.32261 2501 ft 147 kts 342°
2026-04-23 20:03 52.32608 5.32019 2380 ft 136 kts
2026-04-23 20:03 52.33537 5.32152 2213 ft 132 kts
2026-04-23 20:03 52.34393 5.32608 2027 ft 130 kts 29°
2026-04-23 20:03 52.35131 5.33456 1849 ft 130 kts 32°
2026-04-23 20:04 52.35763 5.34522 1702 ft 129 kts 45°
2026-04-23 20:04 52.36392 5.35408 1704 ft 113 kts 40°
2026-04-23 20:04 52.36900 5.36266 1733 ft 97 kts 45°
2026-04-23 20:04 52.37339 5.37062 1797 ft 93 kts 42°
2026-04-23 20:05 52.37762 5.37844 1747 ft 89 kts 44°
2026-04-23 20:05 52.38159 5.38636 1623 ft 91 kts 44°
2026-04-23 20:05 52.38572 5.39412 1459 ft 88 kts 45°
2026-04-23 20:05 52.38966 5.40141 1320 ft 81 kts 43°
2026-04-23 20:06 52.39349 5.40824 1179 ft 82 kts 41°
2026-04-23 20:06 52.39752 5.41504 1072 ft 82 kts 41°
2026-04-23 20:06 52.40140 5.42184 986 ft 83 kts 42°
2026-04-23 20:06 52.40528 5.42898 962 ft 86 kts 43°
2026-04-23 20:07 52.40941 5.43620 954 ft 87 kts 42°
2026-04-23 20:07 52.41338 5.44357 912 ft 85 kts 43°
2026-04-23 20:07 52.41738 5.45077 848 ft 87 kts 41°
2026-04-23 20:07 52.42152 5.45796 756 ft 86 kts 42°
2026-04-23 20:08 52.42559 5.46520 646 ft 87 kts 43°
2026-04-23 20:08 52.42965 5.47254 522 ft 85 kts 43°
2026-04-23 20:08 52.43362 5.47986 404 ft 88 kts 40°
2026-04-23 20:08 52.43788 5.48721 282 ft 89 kts 43°
2026-04-23 20:09 52.44213 5.49481 177 ft 89 kts 43°
2026-04-23 20:09 52.44631 5.50213 43 ft 87 kts 44°
2026-04-23 20:09 52.45000 5.50883 -11 ft 70 kts 40°
2026-04-23 20:09 52.45267 5.51352 -9 ft 41 kts 50°
2026-04-23 20:10 52.45373 5.51543 -9 ft 32 kts 45°
2026-04-23 20:10 52.45470 5.51830 -10 ft 13 kts 152°
2026-04-23 20:10 52.45408 5.51922 -10 ft 11 kts 136°
2026-04-23 20:10 52.45416 5.52009 -10 ft 10 kts 46°
2026-04-23 20:11 52.45466 5.52099 -10 ft 11 kts 49°
2026-04-23 20:11 52.45518 5.52197 -10 ft 11 kts 50°
2026-04-23 20:11 52.45524 5.52285 -10 ft 8 kts 139°
2026-04-23 20:11 52.45495 5.52278 -10 ft 0 kts 239°
2026-04-23 20:12 52.45492 5.52271 -10 ft 0 kts 229°